Litchfield, Michigan
Current Conditions -  °F | °C
As of 9:15 PM on Thursday 18 Dec 2014 (Local Time) from KJYM Reporting Station
Haze Haze  
Wind Chill: 19°   Ceiling: 700
Heat Index: 28°   Visibility: 4mi
Dew Point: 28°   Wind: 9mph
Humidity: 99%   Direction: 270°W
Pressure: 30.17"   Gusts: NA
Location:  42.04°N, 84.76°W
Report Text: KJYM 190215Z AUTO 27008KT 4SM BR BKN007 BKN013 OVC027 M02/M02 A3017 RMK AO2 T10221024
Loading
Personal Weather Stations






























Interactive Weather Map New forecast layout! Learn more

10-Day Weather Forecast

Advertisements
Track Severe Weather on mobile